Time;durP1;ratioP1;P1;durP2;ratioP2;P2;SDS_P1;SDS_P2;PMS_P1;PMS_P2;Temp;Humidity;BMP_temperature;BMP_pressure;BME280_temperature;BME280_humidity;BME280_pressure;Samples;Min_cycle;Max_cycle;Signal;HPM_P1;HPM_P2
2022/04/29 00:02:13;;;;;;;8.57;4.63;;;;;;;7.21;100.00;97234.06;5011907;28;20045;-80
2022/04/29 00:04:40;;;;;;;7.77;4.93;;;;;;;7.29;100.00;97236.09;5010939;28;20584;-81
2022/04/29 00:07:07;;;;;;;9.27;5.03;;;;;;;7.28;100.00;97235.25;5014022;28;20034;-80
2022/04/29 00:09:34;;;;;;;9.77;4.53;;;;;;;7.36;100.00;97231.25;5035519;28;20030;-79
2022/04/29 00:12:02;;;;;;;8.47;5.80;;;;;;;7.41;100.00;97224.72;5045900;28;20042;-78
2022/04/29 00:14:29;;;;;;;8.60;5.00;;;;;;;7.38;100.00;97226.69;5022373;28;20454;-81
2022/04/29 00:16:55;;;;;;;7.23;4.60;;;;;;;7.42;100.00;97236.00;4996795;28;20030;-81
2022/04/29 00:19:21;;;;;;;7.83;5.03;;;;;;;7.39;100.00;97231.00;5011408;28;20030;-80
2022/04/29 00:21:47;;;;;;;7.00;4.23;;;;;;;7.41;100.00;97234.31;5012076;28;20058;-80
2022/04/29 00:24:13;;;;;;;10.10;5.10;;;;;;;7.30;100.00;97233.34;5027439;28;20081;-80
2022/04/29 00:26:39;;;;;;;7.50;5.70;;;;;;;7.30;100.00;97225.50;5012378;28;20406;-80
2022/04/29 00:29:06;;;;;;;9.20;4.90;;;;;;;7.25;100.00;97229.44;5029409;28;20041;-80
2022/04/29 00:31:33;;;;;;;7.13;4.63;;;;;;;7.30;100.00;97220.25;5001911;28;20018;-80
2022/04/29 00:33:59;;;;;;;11.33;5.20;;;;;;;7.25;100.00;97225.03;5013059;28;20780;-81
2022/04/29 00:36:25;;;;;;;9.53;4.80;;;;;;;7.23;100.00;97220.84;4996446;28;20030;-80
2022/04/29 00:38:51;;;;;;;8.17;5.27;;;;;;;7.23;100.00;97220.84;5013289;28;20121;-80
2022/04/29 00:41:18;;;;;;;8.17;5.83;;;;;;;7.22;100.00;97214.78;5012727;28;20038;-81
2022/04/29 00:43:44;;;;;;;7.33;5.23;;;;;;;7.18;100.00;97213.34;4996517;28;20466;-80
2022/04/29 00:46:10;;;;;;;9.13;5.50;;;;;;;7.12;100.00;97216.41;5014292;28;20026;-81
2022/04/29 00:48:37;;;;;;;8.87;5.00;;;;;;;6.77;100.00;97214.63;5014033;28;20148;-81
2022/04/29 00:51:03;;;;;;;7.57;5.27;;;;;;;6.79;100.00;97210.09;5011667;28;20053;-81
2022/04/29 00:53:30;;;;;;;9.33;5.97;;;;;;;6.83;100.00;97211.53;4995706;28;21330;-81
2022/04/29 00:55:57;;;;;;;10.50;5.90;;;;;;;6.70;100.00;97208.13;5012659;28;20046;-80
2022/04/29 00:58:37;;;;;;;8.97;5.80;;;;;;;6.79;100.00;97202.25;4995772;28;20065;-81
2022/04/29 01:01:04;;;;;;;9.77;6.10;;;;;;;6.70;100.00;97197.69;5011397;28;20424;-79
2022/04/29 01:03:32;;;;;;;8.93;5.80;;;;;;;6.68;100.00;97196.97;5011013;28;20200;-81
2022/04/29 01:05:58;;;;;;;8.40;5.93;;;;;;;6.64;100.00;97194.69;5008810;28;20041;-80
2022/04/29 01:08:23;;;;;;;8.50;6.37;;;;;;;6.64;100.00;97185.09;5013465;28;20057;-81
2022/04/29 01:10:49;;;;;;;9.47;5.93;;;;;;;6.63;100.00;97182.56;4996724;28;20065;-81
2022/04/29 01:13:18;;;;;;;10.00;6.70;;;;;;;6.65;100.00;97185.91;5016176;28;20056;-79
2022/04/29 01:15:45;;;;;;;11.50;6.37;;;;;;;6.55;100.00;97183.13;5014895;28;20072;-81
2022/04/29 01:18:13;;;;;;;11.40;6.50;;;;;;;6.53;100.00;97180.63;5013785;28;20032;-81
2022/04/29 01:20:39;;;;;;;10.73;6.43;;;;;;;6.47;100.00;97180.22;5030408;28;20045;-81
2022/04/29 01:23:07;;;;;;;12.10;6.80;;;;;;;6.48;100.00;97177.50;5015028;28;20058;-81
2022/04/29 01:25:34;;;;;;;9.63;6.90;;;;;;;6.48;100.00;97179.31;4999896;28;20068;-81
2022/04/29 01:28:00;;;;;;;10.30;6.37;;;;;;;6.40;100.00;97176.38;5016176;28;20030;-81
2022/04/29 01:30:26;;;;;;;9.67;7.17;;;;;;;6.34;100.00;97175.06;4999681;28;20484;-81
2022/04/29 01:32:56;;;;;;;8.90;6.47;;;;;;;6.37;100.00;97173.06;5017061;28;20030;-81
2022/04/29 01:35:23;;;;;;;13.43;6.60;;;;;;;6.38;100.00;97168.66;5013568;28;20042;-81
2022/04/29 01:37:49;;;;;;;11.00;6.70;;;;;;;6.36;100.00;97174.00;5000152;28;20470;-79
2022/04/29 01:40:17;;;;;;;10.83;6.87;;;;;;;6.34;100.00;97170.66;5001818;28;20036;-80
2022/04/29 01:42:44;;;;;;;9.53;6.80;;;;;;;6.28;100.00;97168.50;5021847;28;20026;-80
2022/04/29 01:45:11;;;;;;;9.67;6.77;;;;;;;6.17;100.00;97167.56;5006486;28;20130;-80
2022/04/29 01:48:09;;;;;;;9.70;6.87;;;;;;;6.07;100.00;97178.69;4999863;28;20951;-80
2022/04/29 01:50:49;;;;;;;11.27;7.40;;;;;;;6.01;100.00;97163.47;4999045;28;20033;-81
2022/04/29 01:53:15;;;;;;;9.90;6.83;;;;;;;5.94;100.00;97166.63;4990855;28;20041;-79
2022/04/29 01:55:41;;;;;;;11.00;6.87;;;;;;;5.95;100.00;97163.06;4999772;28;20079;-80
2022/04/29 01:58:08;;;;;;;10.83;7.40;;;;;;;5.89;100.00;97162.50;4984228;28;20033;-80
2022/04/29 02:00:34;;;;;;;10.67;6.97;;;;;;;5.73;100.00;97158.44;4998096;28;20049;-80
2022/04/29 02:02:59;;;;;;;11.03;7.30;;;;;;;5.74;100.00;97160.13;4986930;28;20164;-81
2022/04/29 02:05:25;;;;;;;10.33;7.40;;;;;;;5.62;100.00;97154.81;4986090;28;20506;-80
2022/04/29 02:07:51;;;;;;;11.00;7.30;;;;;;;5.60;100.00;97158.47;4972065;28;20072;-81
2022/04/29 02:10:18;;;;;;;10.33;7.60;;;;;;;5.60;100.00;97153.22;4969393;28;20373;-80
2022/04/29 02:12:46;;;;;;;14.13;6.73;;;;;;;5.53;100.00;97157.22;4990045;28;20088;-80
2022/04/29 02:15:31;;;;;;;11.37;7.07;;;;;;;5.58;100.00;97158.56;4997838;28;20065;-79
2022/04/29 02:18:01;;;;;;;14.50;7.73;;;;;;;5.58;100.00;97150.75;4975615;28;20758;-80
2022/04/29 02:20:27;;;;;;;8.93;6.43;;;;;;;5.60;100.00;97148.88;4997262;28;20116;-80
2022/04/29 02:22:54;;;;;;;8.43;6.57;;;;;;;5.54;100.00;97153.69;4983262;28;20601;-80
2022/04/29 02:25:20;;;;;;;10.00;6.50;;;;;;;5.49;100.00;97158.38;5002160;28;20021;-80
2022/04/29 02:27:46;;;;;;;9.63;6.50;;;;;;;5.42;100.00;97160.56;4991188;28;20034;-80
2022/04/29 02:30:13;;;;;;;8.33;6.10;;;;;;;5.42;100.00;97166.59;4993651;28;20040;-81
2022/04/29 02:32:39;;;;;;;9.57;6.83;;;;;;;5.34;100.00;97152.44;5013797;28;20030;-80
2022/04/29 02:35:05;;;;;;;9.53;7.30;;;;;;;5.38;100.00;97159.94;5000216;28;20030;-80
2022/04/29 02:37:32;;;;;;;11.50;6.87;;;;;;;5.34;100.00;97155.03;4999696;28;20038;-78
2022/04/29 02:39:58;;;;;;;12.43;7.83;;;;;;;5.29;100.00;97152.72;4998417;28;20084;-80
2022/04/29 02:42:25;;;;;;;9.93;7.07;;;;;;;5.27;100.00;97156.41;5012555;28;20042;-80
2022/04/29 02:44:51;;;;;;;11.40;7.63;;;;;;;5.19;100.00;97151.69;4994661;28;20068;-79
2022/04/29 02:47:20;;;;;;;11.00;7.27;;;;;;;5.11;100.00;97151.38;4987293;28;20116;-80
2022/04/29 02:49:48;;;;;;;11.70;7.10;;;;;;;5.20;100.00;97145.56;4999394;28;20101;-81
2022/04/29 02:52:14;;;;;;;10.50;7.00;;;;;;;5.25;100.00;97147.84;5000031;28;20138;-78
2022/04/29 02:54:41;;;;;;;9.07;6.53;;;;;;;5.22;100.00;97148.88;5000599;28;20022;-80
2022/04/29 02:57:22;;;;;;;9.23;6.43;;;;;;;5.21;100.00;97149.81;5000159;28;20061;-80
2022/04/29 02:59:48;;;;;;;10.77;6.60;;;;;;;5.11;100.00;97151.38;4999643;28;20030;-81
2022/04/29 03:02:14;;;;;;;14.10;7.07;;;;;;;5.16;100.00;97157.09;4983672;28;20041;-80
2022/04/29 03:04:39;;;;;;;12.00;7.03;;;;;;;5.12;100.00;97146.03;5001034;28;20475;-79
2022/04/29 03:07:06;;;;;;;11.67;7.90;;;;;;;5.10;100.00;97136.69;5000222;28;20034;-81
2022/04/29 03:09:48;;;;;;;11.37;6.97;;;;;;;5.02;100.00;97133.72;5000287;28;20034;-79
2022/04/29 03:12:15;;;;;;;10.50;7.50;;;;;;;4.83;100.00;97140.19;4988360;28;20041;-80
2022/04/29 03:14:42;;;;;;;10.87;6.73;;;;;;;4.86;100.00;97132.16;4994923;28;20061;-80
2022/04/29 03:19:53;;;;;;;11.37;7.30;;;;;;;4.81;100.00;97134.22;5015073;28;20030;-80
2022/04/29 03:22:19;;;;;;;9.70;7.10;;;;;;;4.87;100.00;97133.00;5020632;28;20056;-80
2022/04/29 03:24:45;;;;;;;11.20;7.07;;;;;;;4.85;100.00;97125.25;4998746;28;20041;-80
2022/04/29 03:27:11;;;;;;;10.13;7.27;;;;;;;4.77;100.00;97127.56;5005130;28;20033;-80
2022/04/29 03:29:37;;;;;;;9.50;6.30;;;;;;;4.77;100.00;97122.34;5014028;28;20498;-80
2022/04/29 03:32:05;;;;;;;10.60;7.33;;;;;;;4.70;100.00;97121.09;5000440;28;20029;-80
2022/04/29 03:35:00;;;;;;;12.47;7.60;;;;;;;4.71;100.00;97125.34;5011038;28;20034;-80
2022/04/29 03:37:26;;;;;;;10.43;7.57;;;;;;;4.77;100.00;97124.13;5002794;28;20026;-80
2022/04/29 03:39:53;;;;;;;9.23;6.63;;;;;;;4.85;100.00;97121.81;5004414;28;20046;-80
2022/04/29 03:42:19;;;;;;;12.33;7.90;;;;;;;4.86;100.00;97124.34;5016408;28;20147;-80
2022/04/29 03:44:45;;;;;;;11.97;7.80;;;;;;;4.83;100.00;97121.94;5000270;28;20021;-80
2022/04/29 03:47:11;;;;;;;10.00;7.43;;;;;;;4.61;100.00;97127.72;5007029;28;20364;-81
2022/04/29 03:49:53;;;;;;;12.00;8.60;;;;;;;4.73;100.00;97128.69;5002265;28;20026;-80
2022/04/29 03:52:22;;;;;;;11.03;7.80;;;;;;;4.82;100.00;97133.28;5017359;28;20025;-82
2022/04/29 03:54:51;;;;;;;12.07;8.23;;;;;;;4.72;100.00;97130.44;5012555;28;20088;-81
2022/04/29 03:57:18;;;;;;;12.80;9.30;;;;;;;4.67;100.00;97126.50;5013550;28;20026;-80
2022/04/29 03:59:44;;;;;;;11.83;8.30;;;;;;;4.80;100.00;97122.16;5023327;28;20041;-80
2022/04/29 04:02:10;;;;;;;13.43;8.70;;;;;;;4.84;100.00;97123.59;5007995;28;20026;-80
2022/04/29 04:04:36;;;;;;;11.03;8.63;;;;;;;4.88;100.00;97125.06;5018329;28;20117;-81
2022/04/29 04:07:03;;;;;;;13.77;9.73;;;;;;;4.86;100.00;97123.50;4994261;28;20109;-80
2022/04/29 04:09:51;;;;;;;11.57;8.63;;;;;;;4.83;100.00;97127.16;5001981;28;20038;-81
2022/04/29 04:12:17;;;;;;;12.77;8.90;;;;;;;4.85;100.00;97125.25;5007663;28;20030;-81
2022/04/29 04:15:03;;;;;;;12.77;8.10;;;;;;;4.77;100.00;97122.34;5009193;28;20044;-81
2022/04/29 04:17:36;;;;;;;11.40;7.97;;;;;;;4.80;100.00;97124.75;4998818;28;20044;-81
2022/04/29 04:20:04;;;;;;;11.93;8.17;;;;;;;4.85;100.00;97135.69;5012527;28;20041;-79
2022/04/29 04:22:38;;;;;;;13.37;7.77;;;;;;;4.70;100.00;97132.34;5032855;28;20041;-80
2022/04/29 04:25:06;;;;;;;12.47;7.67;;;;;;;4.69;100.00;97129.81;5006580;28;20034;-80
2022/04/29 04:27:32;;;;;;;10.83;7.37;;;;;;;4.58;100.00;97129.69;5021167;28;20518;-80
2022/04/29 04:29:59;;;;;;;12.80;8.33;;;;;;;4.79;100.00;97133.47;5007036;28;20029;-81
2022/04/29 04:32:26;;;;;;;12.17;8.43;;;;;;;4.76;100.00;97144.09;5018377;28;20053;-80
2022/04/29 04:34:57;;;;;;;15.50;8.80;;;;;;;4.88;100.00;97140.69;5016891;28;20038;-81
2022/04/29 04:37:25;;;;;;;10.90;8.67;;;;;;;5.01;100.00;97130.31;4996212;28;20040;-81
2022/04/29 04:39:58;;;;;;;11.15;7.95;;;;;;;4.84;100.00;97141.03;5022586;28;20036;-81
2022/04/29 04:42:28;;;;;;;10.43;7.47;;;;;;;4.96;100.00;97146.25;5021290;28;20807;-81
2022/04/29 04:44:58;;;;;;;13.17;8.57;;;;;;;4.80;100.00;97150.81;5020261;28;20045;-80
2022/04/29 04:47:25;;;;;;;10.53;7.70;;;;;;;4.89;100.00;97144.13;5020213;28;20290;-81
2022/04/29 04:50:19;;;;;;;;;;;;;;;4.97;100.00;97145.31;5021439;28;20072;-80
2022/04/29 04:52:45;;;;;;;17.03;9.07;;;;;;;5.08;100.00;97143.75;5009186;28;19920;-81
2022/04/29 04:55:12;;;;;;;13.97;9.63;;;;;;;5.16;100.00;97144.94;5009168;28;20030;-82
2022/04/29 04:57:39;;;;;;;14.13;9.90;;;;;;;5.12;100.00;97148.66;5022056;28;20037;-81
2022/04/29 05:00:06;;;;;;;13.27;10.13;;;;;;;5.44;100.00;97143.88;5017333;28;20120;-80
2022/04/29 05:02:51;;;;;;;11.50;8.20;;;;;;;5.70;100.00;97138.63;5012121;28;20026;-81
2022/04/29 05:05:55;;;;;;;14.88;9.63;;;;;;;5.95;100.00;97139.56;5011260;28;20041;-80
2022/04/29 05:08:23;;;;;;;12.47;8.53;;;;;;;6.08;100.00;97138.56;5017476;28;20029;-81
2022/04/29 05:10:49;;;;;;;17.23;9.07;;;;;;;6.30;100.00;97140.47;4998235;28;20083;-80
2022/04/29 05:13:15;;;;;;;14.33;8.47;;;;;;;6.61;100.00;97141.72;5011417;28;20040;-81
2022/04/29 05:15:48;;;;;;;;;;;;;;;6.56;100.00;97142.97;4995269;28;20685;-80
2022/04/29 05:18:24;;;;;;;14.43;8.80;;;;;;;6.51;100.00;97140.72;4976793;28;19936;-81
2022/04/29 05:21:10;;;;;;;19.57;9.50;;;;;;;6.49;100.00;97145.19;4990956;28;20045;-81
2022/04/29 05:23:36;;;;;;;13.00;9.07;;;;;;;6.75;100.00;97140.69;4976912;28;20037;-80
2022/04/29 05:26:22;;;;;;;18.40;9.70;;;;;;;6.87;100.00;97140.72;4996184;28;20084;-82
2022/04/29 05:29:06;;;;;;;12.03;8.90;;;;;;;6.82;100.00;97152.34;4995746;28;20394;-82
2022/04/29 05:31:50;;;;;;;13.07;8.80;;;;;;;7.09;100.00;97151.25;5006304;28;20064;-81
2022/04/29 05:34:40;;;;;;;13.50;9.23;;;;;;;7.23;100.00;97153.66;5003099;28;20498;-82
2022/04/29 05:37:24;;;;;;;14.60;8.57;;;;;;;7.48;97.99;97151.81;4993776;28;20052;-82
2022/04/29 05:42:41;;;;;;;12.18;8.30;;;;;;;8.14;95.86;97147.47;4993373;28;19925;-81
2022/04/29 05:45:08;;;;;;;14.13;9.33;;;;;;;8.00;94.98;97148.56;4994476;28;20034;-80
2022/04/29 05:47:35;;;;;;;11.70;7.67;;;;;;;8.30;93.15;97139.25;4955104;28;21704;-79
2022/04/29 05:50:01;;;;;;;14.77;8.53;;;;;;;8.66;89.80;97140.72;4963409;28;20049;-80
2022/04/29 05:52:31;;;;;;;12.00;7.70;;;;;;;8.97;88.07;97146.06;4965888;28;20084;-82
2022/04/29 05:54:56;;;;;;;12.57;8.10;;;;;;;9.54;82.25;97141.31;4951673;28;20049;-81
2022/04/29 05:57:27;;;;;;;11.53;7.80;;;;;;;9.68;83.04;97141.78;4964293;28;20100;-82
2022/04/29 05:59:53;;;;;;;12.87;8.20;;;;;;;9.68;82.70;97147.03;4967540;28;20034;-82
2022/04/29 06:02:27;;;;;;;11.87;8.10;;;;;;;9.95;81.25;97140.38;4994175;28;20103;-82
2022/04/29 06:05:10;;;;;;;12.27;7.80;;;;;;;9.84;83.24;97138.69;4988850;28;20044;-82
2022/04/29 06:07:41;;;;;;;11.40;8.60;;;;;;;9.72;84.93;97138.91;5008740;28;20034;-82
2022/04/29 06:10:08;;;;;;;10.40;7.57;;;;;;;10.06;80.96;97132.41;4994780;28;20040;-82
2022/04/29 06:12:39;;;;;;;11.27;8.30;;;;;;;9.79;83.00;97145.28;4995372;28;20076;-81
2022/04/29 06:15:12;;;;;;;12.90;8.27;;;;;;;10.23;80.67;97144.06;5012629;28;20025;-81
2022/04/29 06:17:56;;;;;;;11.70;7.70;;;;;;;10.28;78.94;97141.88;5011991;28;20103;-80
2022/04/29 06:21:00;;;;;;;;;;;;;;;10.34;80.68;97145.78;4997411;28;20488;-81
2022/04/29 06:23:26;;;;;;;10.93;7.80;;;;;;;10.75;77.94;97146.53;5007017;28;19925;-80
2022/04/29 06:25:54;;;;;;;10.50;7.97;;;;;;;10.97;74.34;97146.25;4995450;28;20033;-80
2022/04/29 06:28:20;;;;;;;11.70;8.23;;;;;;;11.09;75.56;97145.13;5015844;28;20062;-81
2022/04/29 06:30:47;;;;;;;12.37;8.47;;;;;;;11.39;74.28;97145.09;5011429;28;20030;-80
2022/04/29 06:33:34;;;;;;;13.50;7.97;;;;;;;11.57;73.62;97152.13;4999727;28;20038;-80
2022/04/29 06:36:01;;;;;;;13.20;8.37;;;;;;;11.84;69.04;97145.28;5018379;28;20049;-81
2022/04/29 06:38:28;;;;;;;9.60;7.03;;;;;;;12.40;65.80;97138.19;5002088;28;20029;-80
2022/04/29 06:40:55;;;;;;;10.30;7.43;;;;;;;12.46;67.61;97145.50;5017406;28;20057;-80
2022/04/29 06:43:22;;;;;;;10.53;6.97;;;;;;;12.61;64.81;97145.81;5000745;28;20538;-81
2022/04/29 06:46:07;;;;;;;9.93;8.10;;;;;;;12.79;66.09;97141.38;5015907;28;20060;-80
2022/04/29 06:48:56;;;;;;;10.63;7.37;;;;;;;12.81;63.08;97144.72;5019250;28;20697;-80
2022/04/29 06:51:33;;;;;;;12.70;8.77;;;;;;;12.73;62.07;97148.09;5021087;28;20053;-81
2022/04/29 06:54:04;;;;;;;11.27;7.40;;;;;;;12.21;66.25;97144.41;5010682;28;20030;-80
2022/04/29 06:56:36;;;;;;;11.17;7.43;;;;;;;12.84;65.32;97140.94;5012325;28;20030;-80
2022/04/29 06:59:03;;;;;;;10.73;7.57;;;;;;;12.79;63.62;97136.09;5010143;28;20037;-79
2022/04/29 07:01:32;;;;;;;10.77;7.20;;;;;;;13.15;61.40;97133.47;5012809;28;20057;-81
2022/04/29 07:03:58;;;;;;;11.93;8.00;;;;;;;13.28;60.23;97135.72;5005259;28;20113;-80
2022/04/29 07:06:24;;;;;;;10.17;7.50;;;;;;;13.48;58.93;97131.91;5008377;28;20053;-80
2022/04/29 07:08:50;;;;;;;10.97;7.07;;;;;;;13.87;58.53;97132.28;5016630;28;20105;-81
2022/04/29 07:11:35;;;;;;;10.30;7.23;;;;;;;14.67;54.05;97126.63;5015983;28;20057;-80
2022/04/29 07:14:15;;;;;;;12.80;6.53;;;;;;;16.02;50.95;97128.69;5016746;28;20038;-80
2022/04/29 07:17:14;;;;;;;10.13;6.83;;;;;;;15.20;51.85;97127.19;5024099;28;20042;-80
2022/04/29 07:19:46;;;;;;;12.00;7.90;;;;;;;15.61;51.62;97119.16;5033790;28;20021;-80
2022/04/29 07:22:12;;;;;;;12.10;6.70;;;;;;;16.09;50.09;97115.56;5014758;28;20031;-80
2022/04/29 07:24:44;;;;;;;;;;;;;;;15.52;52.97;97116.50;5016810;28;20542;-81
2022/04/29 07:27:13;;;;;;;11.77;7.30;;;;;;;15.66;50.56;97115.06;5017567;28;19945;-80
2022/04/29 07:29:38;;;;;;;11.27;7.50;;;;;;;16.35;51.48;97109.16;5012068;28;20041;-81
2022/04/29 07:32:13;;;;;;;11.17;7.63;;;;;;;16.72;49.98;97111.06;5016883;28;20037;-81
2022/04/29 07:43:10;;;;;;;8.68;6.10;;;;;;;17.88;45.88;97088.66;5007393;28;20030;-81
2022/04/29 07:45:38;;;;;;;9.75;6.68;;;;;;;16.81;47.42;97098.59;4999277;28;20030;-79
2022/04/29 07:48:22;;;;;;;9.75;5.82;;;;;;;16.07;48.84;97090.22;5002800;28;20072;-81
2022/04/29 07:50:49;;;;;;;9.60;5.72;;;;;;;15.81;50.42;97098.44;5015491;28;20037;-80
2022/04/29 07:53:18;;;;;;;7.63;5.53;;;;;;;16.08;48.59;97092.69;5014197;28;20046;-80
2022/04/29 07:55:44;;;;;;;9.40;5.43;;;;;;;16.74;47.06;97082.53;5013557;28;20120;-80
2022/04/29 07:58:10;;;;;;;8.07;6.10;;;;;;;16.62;46.49;97091.91;4988351;28;20038;-80
2022/04/29 08:00:38;;;;;;;8.80;6.07;;;;;;;16.61;47.36;97087.59;5005825;28;20037;-80
2022/04/29 08:03:05;;;;;;;9.00;5.63;;;;;;;16.18;47.89;97080.03;4997806;28;20069;-80
2022/04/29 08:05:50;;;;;;;8.18;5.85;;;;;;;16.39;46.79;97089.22;5015931;28;20041;-80
2022/04/29 08:08:16;;;;;;;10.50;5.95;;;;;;;16.74;45.04;97082.53;5013924;28;20317;-80
2022/04/29 08:10:43;;;;;;;7.70;5.70;;;;;;;17.78;42.43;97080.13;5024660;28;20056;-81
2022/04/29 08:13:09;;;;;;;8.75;5.60;;;;;;;17.72;44.06;97072.84;5006632;28;20030;-81
2022/04/29 08:15:54;;;;;;;9.13;5.68;;;;;;;18.25;42.03;97073.56;5024741;28;20048;-81
2022/04/29 08:18:37;;;;;;;7.85;5.20;;;;;;;18.14;41.22;97073.03;5003242;28;20149;-81
2022/04/29 08:21:03;;;;;;;8.23;5.40;;;;;;;18.93;42.69;97077.59;4996313;28;20030;-82
2022/04/29 08:23:29;;;;;;;7.00;4.57;;;;;;;19.14;36.71;97076.72;4995659;28;20096;-81
2022/04/29 08:25:56;;;;;;;6.85;4.18;;;;;;;18.30;37.23;97071.16;5011621;28;20545;-81
2022/04/29 08:28:23;;;;;;;6.57;4.10;;;;;;;19.20;35.62;97073.31;5013156;28;20030;-81
2022/04/29 08:30:49;;;;;;;8.00;3.92;;;;;;;19.91;35.86;97075.03;5011588;28;20104;-81
2022/04/29 08:33:15;;;;;;;7.28;4.05;;;;;;;19.97;34.83;97071.56;5011099;28;20022;-81
2022/04/29 08:35:45;;;;;;;6.57;3.63;;;;;;;20.05;33.41;97073.25;4995779;28;20034;-81
2022/04/29 08:38:13;;;;;;;6.38;3.85;;;;;;;20.06;34.50;97072.25;4995682;28;20018;-81
2022/04/29 08:41:00;;;;;;;6.90;4.57;;;;;;;19.30;33.07;97088.97;5008109;28;20506;-81
2022/04/29 08:43:31;;;;;;;10.02;4.63;;;;;;;18.56;34.64;97078.63;5011439;28;20030;-81
2022/04/29 08:46:01;;;;;;;6.90;4.05;;;;;;;18.50;34.39;97080.19;5000529;28;20041;-81
2022/04/29 08:48:46;;;;;;;6.70;4.03;;;;;;;17.87;34.86;97087.00;5010068;28;20187;-81
2022/04/29 08:51:13;;;;;;;7.10;4.18;;;;;;;18.16;34.39;97074.69;5011874;28;20506;-81
2022/04/29 08:53:39;;;;;;;8.48;3.97;;;;;;;17.88;35.79;97072.69;5005859;28;20034;-81
2022/04/29 08:58:49;;;;;;;8.65;4.25;;;;;;;17.97;35.79;97070.75;5011599;28;20037;-81
2022/04/29 09:01:20;;;;;;;7.38;4.60;;;;;;;17.35;35.83;97066.59;5004411;28;20018;-81
2022/04/29 09:03:47;;;;;;;6.72;4.00;;;;;;;18.16;34.74;97064.03;5011566;28;20030;-82
2022/04/29 09:06:22;;;;;;;6.07;3.55;;;;;;;17.91;34.70;97072.34;5013306;28;20036;-82
2022/04/29 09:08:49;;;;;;;7.40;4.30;;;;;;;17.85;35.36;97071.22;4996238;28;20046;-81
2022/04/29 09:11:23;;;;;;;8.10;3.90;;;;;;;17.53;34.64;97072.38;4999436;28;20060;-81
2022/04/29 09:13:49;;;;;;;6.60;3.58;;;;;;;17.73;34.44;97063.84;4999102;28;20388;-81
2022/04/29 09:16:15;;;;;;;5.38;3.10;;;;;;;18.26;34.21;97065.38;5017517;28;20025;-82
2022/04/29 09:18:43;;;;;;;5.57;3.30;;;;;;;18.94;34.05;97068.56;5000856;28;20026;-81
2022/04/29 09:21:17;;;;;;;7.88;3.10;;;;;;;19.10;33.12;97056.81;5017004;28;20026;-82
2022/04/29 09:23:57;;;;;;;6.13;3.22;;;;;;;18.76;33.83;97054.88;5000815;28;20044;-81
2022/04/29 09:26:39;;;;;;;5.40;2.88;;;;;;;18.55;33.71;97053.81;5017996;28;20225;-81
2022/04/29 09:29:41;;;;;;;8.45;3.20;;;;;;;17.73;34.98;97069.16;5008900;28;20046;-80
2022/04/29 09:32:12;;;;;;;5.60;3.25;;;;;;;17.49;35.15;97064.94;5017924;28;20037;-81
2022/04/29 09:35:10;;;;;;;7.10;3.47;;;;;;;17.97;33.37;97071.56;5011668;28;20648;-81
2022/04/29 09:39:26;;;;;;;5.22;3.00;;;;;;;17.17;33.70;97078.38;4998735;28;20041;-81
2022/04/29 09:40:22;;;;;;;5.45;3.42;;;;;;;17.53;34.46;97067.06;5025110;28;20045;-81
2022/04/29 09:42:48;;;;;;;4.57;2.97;;;;;;;17.56;34.05;97061.38;5013732;28;20033;-81
2022/04/29 09:45:17;;;;;;;7.80;3.35;;;;;;;18.33;34.71;97062.78;5018120;28;20558;-81
2022/04/29 09:47:43;;;;;;;6.38;3.05;;;;;;;18.17;33.81;97053.19;5003873;28;20034;-81
2022/04/29 09:50:09;;;;;;;5.72;3.35;;;;;;;18.11;34.27;97052.13;5015306;28;20497;-81
2022/04/29 09:52:39;;;;;;;6.10;3.65;;;;;;;17.34;34.57;97055.13;5013918;28;20022;-81
2022/04/29 09:55:09;;;;;;;8.27;3.60;;;;;;;17.44;34.46;97053.03;5006206;28;20041;-81
2022/04/29 09:57:49;;;;;;;6.30;3.13;;;;;;;17.73;34.82;97047.88;5014048;28;20395;-81
2022/04/29 10:00:15;;;;;;;6.63;3.67;;;;;;;17.57;34.82;97039.09;5013956;28;20033;-81
2022/04/29 10:02:41;;;;;;;7.22;3.53;;;;;;;17.95;34.20;97039.00;5013387;28;20557;-81
2022/04/29 10:05:09;;;;;;;6.80;3.95;;;;;;;17.96;33.97;97032.66;5013752;28;20095;-80
2022/04/29 10:07:39;;;;;;;7.35;4.60;;;;;;;18.29;34.70;97030.41;5013578;28;20621;-80
2022/04/29 10:10:05;;;;;;;7.22;4.35;;;;;;;18.46;34.53;97035.50;5013908;28;20034;-81
2022/04/29 10:12:33;;;;;;;6.63;4.18;;;;;;;18.60;33.89;97029.28;5005661;28;20029;-81
2022/04/29 10:15:19;;;;;;;6.63;4.10;;;;;;;19.46;34.48;97029.19;5009211;28;20073;-80
2022/04/29 10:23:38;;;;;;;9.70;4.60;;;;;;;19.72;34.73;97017.88;5014538;28;20038;-81
2022/04/29 10:26:05;;;;;;;7.90;4.60;;;;;;;19.84;34.35;97020.78;4996631;28;20085;-80
2022/04/29 10:28:31;;;;;;;9.85;4.78;;;;;;;19.73;35.73;97019.50;5013406;28;20033;-80
2022/04/29 10:31:02;;;;;;;6.75;4.38;;;;;;;20.27;34.50;97013.34;5015181;28;20033;-81
2022/04/29 10:33:28;;;;;;;10.50;5.22;;;;;;;19.48;36.42;97022.63;4996220;28;20610;-81
2022/04/29 10:35:59;;;;;;;9.55;5.88;;;;;;;19.47;35.39;97014.81;5012887;28;20034;-81
2022/04/29 10:38:32;;;;;;;7.28;5.47;;;;;;;19.70;35.42;97015.38;5014540;28;20112;-82
2022/04/29 10:41:06;;;;;;;;;;;;;;;20.12;35.14;97005.50;5008938;28;20133;-80
2022/04/29 10:44:03;;;;;;;8.82;5.65;;;;;;;20.60;35.22;97004.63;4996483;28;19926;-80
2022/04/29 10:46:41;;;;;;;9.55;5.43;;;;;;;20.43;34.39;97010.31;5015306;28;20096;-80
2022/04/29 10:49:24;;;;;;;8.63;5.55;;;;;;;19.99;33.66;97002.78;5011517;28;20065;-80
2022/04/29 10:52:23;;;;;;;9.35;4.90;;;;;;;21.07;34.02;96998.25;5011180;28;20061;-81
2022/04/29 10:54:59;;;;;;;10.07;5.72;;;;;;;21.10;33.42;96997.03;5026156;28;20034;-81
2022/04/29 10:57:40;;;;;;;7.57;6.07;;;;;;;21.24;33.01;96993.31;5011035;28;20046;-81
2022/04/29 11:00:11;;;;;;;10.80;5.72;;;;;;;20.54;33.18;96990.22;5011786;28;20065;-81
2022/04/29 11:02:40;;;;;;;8.15;5.93;;;;;;;20.73;33.55;96988.59;4998426;28;20116;-81
2022/04/29 11:05:10;;;;;;;8.65;5.80;;;;;;;19.61;35.13;96989.03;5014169;28;20034;-80
2022/04/29 11:07:44;;;;;;;6.88;5.22;;;;;;;19.26;35.80;96989.84;5012965;28;20452;-81
2022/04/29 11:10:10;;;;;;;7.18;6.20;;;;;;;19.65;34.85;96985.81;5002862;28;20038;-81
2022/04/29 11:12:39;;;;;;;7.20;4.93;;;;;;;20.10;34.14;96972.00;4991798;28;20072;-79
2022/04/29 11:15:38;;;;;;;8.88;6.00;;;;;;;19.81;35.52;96978.47;5010565;28;20044;-81
2022/04/29 11:18:25;;;;;;;8.45;5.20;;;;;;;18.92;35.12;96982.66;5008251;28;20041;-81
2022/04/29 11:20:57;;;;;;;9.38;5.43;;;;;;;19.05;35.80;96971.28;5007553;28;20030;-80
2022/04/29 11:26:15;;;;;;;9.02;4.65;;;;;;;18.51;35.89;96972.66;4991789;28;20100;-76
2022/04/29 11:28:54;;;;;;;6.57;4.38;;;;;;;19.57;35.56;96963.78;4953045;28;20030;-81
2022/04/29 11:31:43;;;;;;;7.07;4.50;;;;;;;19.82;34.05;96969.44;4959170;28;20042;-82
2022/04/29 11:34:15;;;;;;;8.70;5.55;;;;;;;20.68;32.35;96957.13;4962353;28;20026;-80
2022/04/29 11:36:43;;;;;;;8.32;4.28;;;;;;;20.47;33.30;96963.44;4971813;28;20443;-80
2022/04/29 11:39:14;;;;;;;6.88;3.85;;;;;;;19.99;33.00;96965.41;4959714;28;20069;-81
2022/04/29 11:41:55;;;;;;;7.85;4.03;;;;;;;19.45;33.34;96963.50;4986621;28;20029;-81
2022/04/29 11:44:38;;;;;;;7.90;3.72;;;;;;;20.40;32.81;96951.13;4987976;28;20034;-80
2022/04/29 11:47:05;;;;;;;6.55;3.75;;;;;;;21.32;31.42;96950.25;4990206;28;20061;-81
2022/04/29 11:49:34;;;;;;;7.88;4.00;;;;;;;20.57;31.24;96963.09;4987515;28;20108;-81
2022/04/29 11:52:30;;;;;;;6.18;3.60;;;;;;;20.21;32.78;96953.53;5004394;28;20516;-79
2022/04/29 11:55:07;;;;;;;8.57;3.92;;;;;;;21.25;31.43;96944.09;4970160;28;20124;-80
2022/04/29 11:57:34;;;;;;;7.90;4.57;;;;;;;21.13;31.07;96945.81;5009251;28;20034;-79
2022/04/29 12:00:06;;;;;;;6.03;3.55;;;;;;;22.45;30.30;96938.28;5023837;28;20025;-80
2022/04/29 12:02:46;;;;;;;6.93;4.10;;;;;;;20.63;31.76;96942.75;5024204;28;20041;-81
2022/04/29 12:05:12;;;;;;;7.45;3.72;;;;;;;;;;5019366;28;20029;-81
2022/04/29 12:07:41;;;;;;;6.57;4.13;;;;;;;20.67;31.81;96941.31;5010276;28;20042;-81
2022/04/29 12:10:20;;;;;;;7.00;4.03;;;;;;;21.58;31.15;96927.16;4997035;28;20480;-82
2022/04/29 12:12:49;;;;;;;7.57;4.80;;;;;;;21.37;31.00;96925.59;4998726;28;20073;-82
2022/04/29 12:15:20;;;;;;;6.60;4.40;;;;;;;20.70;34.30;96927.53;5016676;28;20629;-82
2022/04/29 12:17:50;;;;;;;6.43;4.38;;;;;;;20.85;31.31;96921.97;5018745;28;20524;-82